Time;durP1;ratioP1;P1;durP2;ratioP2;P2;SDS_P1;SDS_P2;PMS_P1;PMS_P2;Temp;Humidity;BMP_temperature;BMP_pressure;BME280_temperature;BME280_humidity;BME280_pressure;Samples;Min_cycle;Max_cycle;Signal;HPM_P1;HPM_P2
2023/06/05 00:02:05;;;;;;;2.60;1.80;;;19.70;85.60;;;;;;5009894;28;20697;-34
2023/06/05 00:04:39;;;;;;;3.78;1.90;;;19.60;85.50;;;;;;5019476;28;20735;-34
2023/06/05 00:07:06;;;;;;;4.10;2.03;;;19.60;85.40;;;;;;5022423;28;20307;-34
2023/06/05 00:09:34;;;;;;;3.92;2.10;;;19.60;85.60;;;;;;5010662;28;20323;-34
2023/06/05 00:12:04;;;;;;;4.00;2.13;;;19.50;85.60;;;;;;5001482;28;20206;-35
2023/06/05 00:14:33;;;;;;;2.55;2.03;;;19.50;85.50;;;;;;4994404;28;20263;-34
2023/06/05 00:17:01;;;;;;;3.13;1.80;;;19.50;86.30;;;;;;5005041;28;20288;-34
2023/06/05 00:19:30;;;;;;;3.78;1.95;;;19.40;85.40;;;;;;5004752;28;21062;-34
2023/06/05 00:22:04;;;;;;;2.78;1.90;;;19.40;85.60;;;;;;5011292;28;20241;-34
2023/06/05 00:24:34;;;;;;;4.85;2.20;;;19.30;85.90;;;;;;5010568;28;20328;-34
2023/06/05 00:27:04;;;;;;;3.22;2.05;;;19.30;86.00;;;;;;5002045;28;20211;-34
2023/06/05 00:29:36;;;;;;;3.45;2.10;;;19.30;86.80;;;;;;4994619;28;20233;-34
2023/06/05 00:32:04;;;;;;;5.85;2.33;;;19.30;86.40;;;;;;5018963;28;20215;-34
2023/06/05 00:34:31;;;;;;;3.78;2.40;;;19.20;86.90;;;;;;5021488;28;20637;-34
2023/06/05 00:36:59;;;;;;;3.88;2.33;;;19.20;87.00;;;;;;5010112;28;20824;-34
2023/06/05 00:39:26;;;;;;;5.03;2.33;;;19.20;86.90;;;;;;5010395;28;20939;-34
2023/06/05 00:42:01;;;;;;;5.93;2.30;;;19.10;86.40;;;;;;5015357;28;20200;-34
2023/06/05 00:44:28;;;;;;;3.45;2.10;;;19.10;87.00;;;;;;5013234;28;20279;-34
2023/06/05 00:46:59;;;;;;;4.85;2.40;;;19.10;87.00;;;;;;5020625;28;20220;-34
2023/06/05 00:49:30;;;;;;;5.57;2.28;;;19.00;87.00;;;;;;5020126;28;20213;-35
2023/06/05 00:52:00;;;;;;;5.40;2.38;;;19.00;87.00;;;;;;5013838;28;20220;-34
2023/06/05 00:54:30;;;;;;;5.13;1.95;;;18.90;87.10;;;;;;5019025;28;20251;-35
2023/06/05 00:57:00;;;;;;;2.47;2.10;;;18.90;88.30;;;;;;5015621;28;20327;-34
2023/06/05 00:59:32;;;;;;;4.82;2.50;;;18.80;87.30;;;;;;5009298;28;20643;-34
2023/06/05 01:02:02;;;;;;;5.55;2.45;;;18.80;87.30;;;;;;5002869;28;20212;-34
2023/06/05 01:04:29;;;;;;;4.10;2.60;;;18.80;87.10;;;;;;5004507;28;20232;-34
2023/06/05 01:07:00;;;;;;;5.10;2.20;;;18.70;87.10;;;;;;5010906;28;20902;-35
2023/06/05 01:09:29;;;;;;;4.47;2.67;;;18.70;87.70;;;;;;4995535;28;20217;-35
2023/06/05 01:12:23;;;;;;;4.05;2.40;;;18.60;87.40;;;;;;5016952;28;20598;-34
2023/06/05 01:14:51;;;;;;;5.07;2.55;;;18.60;89.30;;;;;;5012385;28;20315;-34
2023/06/05 01:17:24;;;;;;;2.88;2.13;;;18.50;87.70;;;;;;5003729;28;20259;-34
2023/06/05 01:19:55;;;;;;;3.47;2.17;;;18.40;87.70;;;;;;5003203;28;20623;-34
2023/06/05 01:22:25;;;;;;;4.95;2.67;;;18.40;87.70;;;;;;5018335;28;20304;-34
2023/06/05 01:24:57;;;;;;;4.13;2.17;;;18.40;87.80;;;;;;4990853;28;20224;-34
2023/06/05 01:28:00;;;;;;;5.75;2.58;;;18.30;87.30;;;;;;4994155;28;20205;-34
2023/06/05 01:31:01;;;;;;;5.88;3.13;;;18.30;89.60;;;;;;5021705;28;20266;-35
2023/06/05 01:33:41;;;;;;;5.90;2.85;;;18.30;88.90;;;;;;5017032;28;20316;-35
2023/06/05 01:36:11;;;;;;;4.10;2.50;;;18.20;89.20;;;;;;5015085;28;20209;-35
2023/06/05 01:38:40;;;;;;;5.45;2.15;;;18.10;88.10;;;;;;5017522;28;20209;-35
2023/06/05 01:41:10;;;;;;;6.35;2.95;;;18.10;89.50;;;;;;5000625;28;20312;-35
2023/06/05 01:43:40;;;;;;;4.47;2.50;;;18.00;88.40;;;;;;4984675;28;20303;-33
2023/06/05 01:46:09;;;;;;;5.45;2.85;;;18.00;89.30;;;;;;5009083;28;20320;-33
2023/06/05 01:48:42;;;;;;;3.67;2.60;;;18.00;90.00;;;;;;5002457;28;20727;-33
2023/06/05 01:51:09;;;;;;;3.33;2.30;;;17.90;88.60;;;;;;5021015;28;20690;-36
2023/06/05 01:53:39;;;;;;;6.00;2.80;;;17.90;88.80;;;;;;4990238;28;20204;-35
2023/06/05 01:56:11;;;;;;;4.20;2.58;;;17.80;88.60;;;;;;5003037;28;20237;-34
2023/06/05 01:58:44;;;;;;;4.95;2.83;;;17.80;88.30;;;;;;5004303;28;20287;-34
2023/06/05 02:01:18;;;;;;;4.43;2.72;;;17.80;88.60;;;;;;5003860;28;20682;-34
2023/06/05 02:03:47;;;;;;;3.70;2.50;;;17.80;88.50;;;;;;4991919;28;20193;-34
2023/06/05 02:06:16;;;;;;;4.25;2.30;;;17.70;88.20;;;;;;5022962;28;20280;-34
2023/06/05 02:08:43;;;;;;;4.40;2.90;;;17.70;88.50;;;;;;5020944;28;20311;-34
2023/06/05 02:11:14;;;;;;;4.03;2.75;;;17.70;89.20;;;;;;5019192;28;20208;-33
2023/06/05 02:13:41;;;;;;;5.35;2.70;;;17.70;89.20;;;;;;5005829;28;20213;-33
2023/06/05 02:16:11;;;;;;;7.20;2.60;;;17.60;89.50;;;;;;5010023;28;20217;-33
2023/06/05 02:18:48;;;;;;;4.32;2.50;;;17.60;89.70;;;;;;5005782;28;20820;-33
2023/06/05 02:21:15;;;;;;;4.88;2.70;;;17.60;89.10;;;;;;5014266;28;20540;-34
2023/06/05 02:23:43;;;;;;;6.05;2.92;;;17.50;89.10;;;;;;5005268;28;20206;-33
2023/06/05 02:26:10;;;;;;;4.45;2.63;;;17.40;89.20;;;;;;5020307;28;20271;-33
2023/06/05 02:28:42;;;;;;;5.53;2.80;;;17.50;88.60;;;;;;5017898;28;20206;-33
2023/06/05 02:31:16;;;;;;;5.03;2.60;;;17.40;89.30;;;;;;5020030;28;20208;-33
2023/06/05 02:33:49;;;;;;;4.13;2.50;;;17.40;88.60;;;;;;5003523;28;20477;-33
2023/06/05 02:36:22;;;;;;;6.75;2.88;;;17.30;88.60;;;;;;5015852;28;20289;-33
2023/06/05 02:38:49;;;;;;;3.90;2.53;;;17.30;90.00;;;;;;5013463;28;20713;-33
2023/06/05 02:41:21;;;;;;;5.22;2.78;;;17.20;88.90;;;;;;5016709;28;20225;-33
2023/06/05 02:43:50;;;;;;;4.47;2.70;;;17.20;88.70;;;;;;5005155;28;20541;-33
2023/06/05 02:46:17;;;;;;;5.07;2.90;;;17.20;88.80;;;;;;5017583;28;20271;-33
2023/06/05 02:48:45;;;;;;;8.43;2.88;;;17.20;89.90;;;;;;5020396;28;20201;-33
2023/06/05 02:51:14;;;;;;;4.82;2.88;;;17.20;89.00;;;;;;5020188;28;20700;-33
2023/06/05 02:53:44;;;;;;;5.60;3.10;;;17.20;89.50;;;;;;5023205;28;20221;-33
2023/06/05 02:56:14;;;;;;;2.53;2.33;;;17.10;89.30;;;;;;5013024;28;20697;-33
2023/06/05 02:58:43;;;;;;;4.75;3.05;;;17.10;89.40;;;;;;5012595;28;20255;-34
2023/06/05 03:01:13;;;;;;;3.85;2.65;;;17.00;89.40;;;;;;5020361;28;20240;-34
2023/06/05 03:03:41;;;;;;;5.53;3.00;;;17.00;88.80;;;;;;5022993;28;20672;-34
2023/06/05 03:06:08;;;;;;;6.53;2.95;;;17.00;89.00;;;;;;5022446;28;20754;-34
2023/06/05 03:08:36;;;;;;;5.22;2.85;;;17.00;89.50;;;;;;5024347;28;20201;-34
2023/06/05 03:11:05;;;;;;;4.90;3.10;;;16.90;89.10;;;;;;5013970;28;20219;-33
2023/06/05 03:13:32;;;;;;;7.57;3.15;;;16.90;89.80;;;;;;5019357;28;20205;-33
2023/06/05 03:16:03;;;;;;;6.30;3.33;;;16.90;89.80;;;;;;5016891;28;20296;-33
2023/06/05 03:18:33;;;;;;;5.82;2.80;;;16.90;89.80;;;;;;5018157;28;20281;-33
2023/06/05 03:21:05;;;;;;;6.00;3.03;;;16.80;90.00;;;;;;5005024;28;20228;-33
2023/06/05 03:23:32;;;;;;;7.13;3.08;;;16.80;90.10;;;;;;5003971;28;20217;-33
2023/06/05 03:26:01;;;;;;;4.75;3.10;;;16.80;89.80;;;;;;5018702;28;20623;-34
2023/06/05 03:28:34;;;;;;;4.78;3.42;;;16.70;90.00;;;;;;5021285;28;20229;-33
2023/06/05 03:31:01;;;;;;;5.32;3.05;;;16.70;89.90;;;;;;5010423;28;20208;-33
2023/06/05 03:33:30;;;;;;;4.45;3.25;;;16.60;90.10;;;;;;5014940;28;20216;-33
2023/06/05 03:35:57;;;;;;;7.43;3.33;;;16.60;90.00;;;;;;5017856;28;20212;-33
2023/06/05 03:38:29;;;;;;;4.00;3.40;;;16.60;89.70;;;;;;5021308;28;20229;-33
2023/06/05 03:40:56;;;;;;;4.05;3.00;;;16.50;89.90;;;;;;5009878;28;20292;-33
2023/06/05 03:43:24;;;;;;;6.28;3.35;;;16.50;89.60;;;;;;5017790;28;20324;-33
2023/06/05 03:45:53;;;;;;;6.25;2.92;;;16.50;90.60;;;;;;5018176;28;20589;-33
2023/06/05 03:48:25;;;;;;;6.47;3.38;;;16.50;90.20;;;;;;4998979;28;20695;-33
2023/06/05 03:50:55;;;;;;;5.32;3.10;;;16.40;90.40;;;;;;5022493;28;20634;-33
2023/06/05 03:53:29;;;;;;;5.45;3.20;;;16.40;90.00;;;;;;5016675;28;20863;-33
2023/06/05 03:55:59;;;;;;;7.78;3.75;;;16.40;90.00;;;;;;5015952;28;20280;-33
2023/06/05 03:58:28;;;;;;;4.55;3.20;;;16.40;90.00;;;;;;5019255;28;20212;-33
2023/06/05 04:01:00;;;;;;;6.47;3.42;;;16.30;90.50;;;;;;5006816;28;20324;-34
2023/06/05 04:03:28;;;;;;;4.38;3.38;;;16.30;90.10;;;;;;5002880;28;20746;-33
2023/06/05 04:05:58;;;;;;;6.22;3.80;;;16.30;90.00;;;;;;5014865;28;20288;-33
2023/06/05 04:08:25;;;;;;;5.32;2.97;;;16.30;90.20;;;;;;5022539;28;20281;-33
2023/06/05 04:10:57;;;;;;;5.00;3.30;;;16.30;90.10;;;;;;5005531;28;20660;-33
2023/06/05 04:13:29;;;;;;;8.70;3.30;;;16.30;90.10;;;;;;5009732;28;20388;-33
2023/06/05 04:15:57;;;;;;;4.65;3.00;;;16.20;89.80;;;;;;5017801;28;20371;-33
2023/06/05 04:18:28;;;;;;;4.13;3.10;;;16.20;90.30;;;;;;5009487;28;20235;-33
2023/06/05 04:20:57;;;;;;;5.85;3.78;;;16.20;90.30;;;;;;5018317;28;20301;-34
2023/06/05 04:23:24;;;;;;;6.53;3.78;;;16.20;90.10;;;;;;5019549;28;20307;-33
2023/06/05 04:25:54;;;;;;;6.28;3.47;;;16.20;90.20;;;;;;5005358;28;20256;-33
2023/06/05 04:28:24;;;;;;;6.45;3.40;;;16.20;90.60;;;;;;5004123;28;20232;-33
2023/06/05 04:30:51;;;;;;;5.63;3.47;;;16.20;90.30;;;;;;5020284;28;20713;-33
2023/06/05 04:33:20;;;;;;;7.07;4.13;;;16.20;90.20;;;;;;5014683;28;20303;-33
2023/06/05 04:35:50;;;;;;;6.85;4.03;;;16.20;90.60;;;;;;5006085;28;20283;-33
2023/06/05 04:38:20;;;;;;;6.30;3.53;;;16.20;90.30;;;;;;5012234;28;20201;-33
2023/06/05 04:40:53;;;;;;;4.97;3.90;;;16.20;90.40;;;;;;5003752;28;20485;-33
2023/06/05 04:43:22;;;;;;;10.05;4.55;;;16.20;90.50;;;;;;5004540;28;20243;-33
2023/06/05 04:45:49;;;;;;;4.55;3.75;;;16.20;90.60;;;;;;5011594;28;20204;-33
2023/06/05 04:48:19;;;;;;;7.28;4.15;;;16.20;90.50;;;;;;5014816;28;20223;-33
2023/06/05 04:50:47;;;;;;;7.18;4.53;;;16.10;90.40;;;;;;5020153;28;20219;-33
2023/06/05 04:53:15;;;;;;;8.23;4.53;;;16.10;90.60;;;;;;5017011;28;20561;-33
2023/06/05 04:55:45;;;;;;;5.15;4.13;;;16.10;90.60;;;;;;5020354;28;20318;-36
2023/06/05 04:58:16;;;;;;;6.47;4.15;;;16.10;90.30;;;;;;5019612;28;20240;-36
2023/06/05 05:00:49;;;;;;;6.65;4.30;;;16.10;90.30;;;;;;5006067;28;20220;-36
2023/06/05 05:03:17;;;;;;;7.75;4.50;;;16.10;90.70;;;;;;5011700;28;20225;-36
2023/06/05 05:05:44;;;;;;;7.22;4.68;;;16.10;90.90;;;;;;5016739;28;20201;-36
2023/06/05 05:08:12;;;;;;;5.47;4.32;;;16.10;90.90;;;;;;5001727;28;20240;-36
2023/06/05 05:10:41;;;;;;;6.18;4.68;;;16.20;90.60;;;;;;5013532;28;20261;-36
2023/06/05 05:13:10;;;;;;;7.22;4.50;;;16.10;91.00;;;;;;5017743;28;20750;-36
2023/06/05 05:15:38;;;;;;;5.38;4.40;;;16.10;91.10;;;;;;4995175;28;20667;-36
2023/06/05 05:18:05;;;;;;;6.15;4.40;;;16.10;91.00;;;;;;5011325;28;20260;-35
2023/06/05 05:20:34;;;;;;;5.93;4.72;;;16.10;90.90;;;;;;5004448;28;20217;-35
2023/06/05 05:23:03;;;;;;;6.40;4.55;;;16.20;91.20;;;;;;5005411;28;20234;-35
2023/06/05 05:25:33;;;;;;;6.63;4.35;;;16.20;90.90;;;;;;5004276;28;20213;-35
2023/06/05 05:28:03;;;;;;;12.57;5.20;;;16.20;91.20;;;;;;4993251;28;20217;-35
2023/06/05 05:30:33;;;;;;;5.32;4.57;;;16.20;91.10;;;;;;5007997;28;20225;-33
2023/06/05 05:33:03;;;;;;;7.82;5.20;;;16.20;91.00;;;;;;5013891;28;20250;-33
2023/06/05 05:35:30;;;;;;;8.68;5.18;;;16.30;91.00;;;;;;5015245;28;20233;-33
2023/06/05 05:38:00;;;;;;;6.72;4.82;;;16.30;91.00;;;;;;5014483;28;20562;-33
2023/06/05 05:40:27;;;;;;;11.38;5.25;;;16.30;91.20;;;;;;5007056;28;20201;-33
2023/06/05 05:42:56;;;;;;;7.30;5.70;;;16.30;91.10;;;;;;5005987;28;20239;-33
2023/06/05 05:45:24;;;;;;;6.43;4.97;;;16.40;91.40;;;;;;5016522;28;20209;-33
2023/06/05 05:47:51;;;;;;;6.97;5.60;;;16.40;91.10;;;;;;5009377;28;20240;-33
2023/06/05 05:50:20;;;;;;;6.93;5.07;;;16.50;91.40;;;;;;5014486;28;20200;-33
2023/06/05 05:52:51;;;;;;;8.60;4.97;;;16.50;91.10;;;;;;5017842;28;20208;-33
2023/06/05 05:55:19;;;;;;;14.32;7.10;;;16.50;91.10;;;;;;4999896;28;20515;-33
2023/06/05 05:57:50;;;;;;;20.52;7.25;;;16.50;91.30;;;;;;5019393;28;20217;-33
2023/06/05 06:00:18;;;;;;;11.23;5.82;;;16.50;91.90;;;;;;5017466;28;20259;-34
2023/06/05 06:02:52;;;;;;;15.15;7.47;;;16.50;91.20;;;;;;5011588;28;20650;-35
2023/06/05 06:05:20;;;;;;;13.23;5.97;;;16.50;91.50;;;;;;5019373;28;20201;-35
2023/06/05 06:07:47;;;;;;;8.38;5.88;;;16.60;91.60;;;;;;5021657;28;20212;-35
2023/06/05 06:10:17;;;;;;;11.80;6.28;;;16.50;91.50;;;;;;5021131;28;20288;-35
2023/06/05 06:12:45;;;;;;;9.43;6.68;;;16.50;92.50;;;;;;5019617;28;20213;-35
2023/06/05 06:15:15;;;;;;;11.02;5.43;;;16.50;91.60;;;;;;5005040;28;20314;-35
2023/06/05 06:17:42;;;;;;;17.35;6.50;;;16.50;91.40;;;;;;5014659;28;20213;-35
2023/06/05 06:20:12;;;;;;;6.03;5.35;;;16.60;91.70;;;;;;5016604;28;20231;-35
2023/06/05 06:22:45;;;;;;;13.27;6.18;;;16.60;91.60;;;;;;5014474;28;20228;-33
2023/06/05 06:25:14;;;;;;;8.77;6.20;;;16.70;91.60;;;;;;5013711;28;20634;-34
2023/06/05 06:27:45;;;;;;;9.65;5.97;;;16.70;91.80;;;;;;5004945;28;20247;-33
2023/06/05 06:30:21;;;;;;;9.77;6.60;;;16.70;91.80;;;;;;5018780;28;20773;-33
2023/06/05 06:32:48;;;;;;;8.65;5.60;;;16.70;92.00;;;;;;5021222;28;20205;-34
2023/06/05 06:35:18;;;;;;;12.05;7.07;;;16.80;91.80;;;;;;5014379;28;21010;-33
2023/06/05 06:37:48;;;;;;;9.00;6.10;;;16.80;91.70;;;;;;5006661;28;21130;-33
2023/06/05 06:40:18;;;;;;;8.95;5.82;;;16.90;91.90;;;;;;5024239;28;20212;-34
2023/06/05 06:42:46;;;;;;;13.02;6.25;;;16.80;91.60;;;;;;5009624;28;20237;-33
2023/06/05 06:45:15;;;;;;;7.88;6.00;;;16.90;92.30;;;;;;5018572;28;20734;-33
2023/06/05 06:47:43;;;;;;;11.68;7.18;;;16.90;91.90;;;;;;5020909;28;20192;-33
2023/06/05 06:50:30;;;;;;;9.77;5.93;;;16.90;92.00;;;;;;5023596;28;20638;-33
2023/06/05 06:52:57;;;;;;;16.15;6.97;;;16.90;91.80;;;;;;5024225;28;20228;-33
2023/06/05 06:55:30;;;;;;;21.23;7.35;;;17.00;91.80;;;;;;5020997;28;20775;-34
2023/06/05 06:57:57;;;;;;;16.88;7.45;;;17.00;92.00;;;;;;5022475;28;20193;-33
2023/06/05 07:00:26;;;;;;;11.15;6.85;;;17.10;92.20;;;;;;5015793;28;20208;-33
2023/06/05 07:02:53;;;;;;;10.82;6.75;;;17.10;92.60;;;;;;5008601;28;20362;-33
2023/06/05 07:05:23;;;;;;;7.40;5.95;;;17.10;92.80;;;;;;5020610;28;20213;-33
2023/06/05 07:07:50;;;;;;;8.93;6.95;;;17.20;92.10;;;;;;5023841;28;20208;-33
2023/06/05 07:10:20;;;;;;;16.88;7.50;;;17.20;92.30;;;;;;5023437;28;20220;-33
2023/06/05 07:12:50;;;;;;;9.88;6.55;;;17.20;92.10;;;;;;5021816;28;20208;-33
2023/06/05 07:15:17;;;;;;;8.38;6.82;;;17.20;92.30;;;;;;5002613;28;20201;-33
2023/06/05 07:17:44;;;;;;;9.93;6.57;;;17.30;92.40;;;;;;5013995;28;20304;-34
2023/06/05 07:20:16;;;;;;;7.45;6.53;;;17.30;92.60;;;;;;5023200;28;20726;-33
2023/06/05 07:22:47;;;;;;;8.35;6.28;;;17.30;92.30;;;;;;5009159;28;20225;-33
2023/06/05 07:25:20;;;;;;;9.27;6.20;;;17.40;92.30;;;;;;5002764;28;20198;-34
2023/06/05 07:27:48;;;;;;;8.52;6.40;;;17.40;92.40;;;;;;5013432;28;20256;-33
2023/06/05 07:30:16;;;;;;;8.80;6.20;;;17.50;92.30;;;;;;5021761;28;20274;-34
2023/06/05 07:32:48;;;;;;;9.60;7.15;;;17.50;92.40;;;;;;5019741;28;20201;-34
2023/06/05 07:35:20;;;;;;;10.60;7.20;;;17.50;92.70;;;;;;5007571;28;20374;-34
2023/06/05 07:37:50;;;;;;;10.98;7.30;;;17.60;93.10;;;;;;5004828;28;20287;-34
2023/06/05 07:40:20;;;;;;;8.88;7.30;;;17.70;92.60;;;;;;5007573;28;20225;-34
2023/06/05 07:42:52;;;;;;;12.07;7.68;;;17.70;92.60;;;;;;5006578;28;20236;-34
2023/06/05 07:45:21;;;;;;;9.77;7.25;;;17.70;93.40;;;;;;5003128;28;20239;-34
2023/06/05 07:47:51;;;;;;;9.77;6.97;;;17.70;92.80;;;;;;5002151;28;20205;-34
2023/06/05 07:50:21;;;;;;;9.00;7.13;;;17.90;92.70;;;;;;5020485;28;20298;-34
2023/06/05 07:52:51;;;;;;;8.95;6.70;;;17.80;93.00;;;;;;5019723;28;20208;-34
2023/06/05 07:55:25;;;;;;;10.80;7.30;;;17.90;92.70;;;;;;5021222;28;20201;-37
2023/06/05 07:57:54;;;;;;;12.98;8.45;;;17.90;92.60;;;;;;5003487;28;20298;-34
2023/06/05 08:00:28;;;;;;;10.70;7.60;;;17.90;93.10;;;;;;5000808;28;20221;-34
2023/06/05 08:02:58;;;;;;;10.32;6.90;;;17.90;93.00;;;;;;5016731;28;20217;-34
2023/06/05 08:05:28;;;;;;;9.00;7.70;;;17.90;92.80;;;;;;5019490;28;20203;-34
2023/06/05 08:07:55;;;;;;;10.57;7.75;;;18.00;92.80;;;;;;5019221;28;20227;-34
2023/06/05 08:10:27;;;;;;;9.40;6.88;;;18.10;92.80;;;;;;5019419;28;20197;-34
2023/06/05 08:12:57;;;;;;;8.90;7.30;;;18.10;92.60;;;;;;5014442;28;20619;-34
2023/06/05 08:15:26;;;;;;;14.20;8.35;;;18.20;92.70;;;;;;5017279;28;20212;-34
2023/06/05 08:17:56;;;;;;;10.40;7.90;;;18.20;93.10;;;;;;5010175;28;20304;-34
2023/06/05 08:20:23;;;;;;;11.35;7.60;;;18.20;92.90;;;;;;5007973;28;20661;-38
2023/06/05 08:22:50;;;;;;;8.82;7.32;;;18.30;92.80;;;;;;5018398;28;20606;-36
2023/06/05 08:25:20;;;;;;;9.63;7.75;;;18.30;92.90;;;;;;5023079;28;20774;-36
2023/06/05 08:27:50;;;;;;;9.68;7.75;;;18.40;93.00;;;;;;5018613;28;20214;-36
2023/06/05 08:30:17;;;;;;;11.30;9.20;;;18.40;93.00;;;;;;5017854;28;20201;-36
2023/06/05 08:32:47;;;;;;;12.45;8.50;;;18.50;93.40;;;;;;5017641;28;20291;-36
2023/06/05 08:35:16;;;;;;;9.27;7.32;;;18.50;93.20;;;;;;5020909;28;20773;-36
2023/06/05 08:37:46;;;;;;;10.23;8.00;;;18.60;92.90;;;;;;5019772;28;20197;-35
2023/06/05 08:40:15;;;;;;;11.88;8.68;;;18.60;92.90;;;;;;5007583;28;20217;-36
2023/06/05 08:42:45;;;;;;;9.38;7.57;;;18.70;93.20;;;;;;5003159;28;20233;-36
2023/06/05 08:45:14;;;;;;;11.88;7.90;;;18.80;93.10;;;;;;5010784;28;20220;-36
2023/06/05 08:47:49;;;;;;;11.77;8.85;;;18.80;93.20;;;;;;5018698;28;20212;-35
2023/06/05 08:50:19;;;;;;;13.60;8.90;;;18.90;93.20;;;;;;5016624;28;20193;-36
2023/06/05 08:52:52;;;;;;;9.82;8.45;;;18.90;93.30;;;;;;5019674;28;20236;-36
2023/06/05 08:55:23;;;;;;;14.20;9.93;;;19.00;93.20;;;;;;5015518;28;20228;-36
2023/06/05 08:57:55;;;;;;;13.35;9.35;;;19.00;93.30;;;;;;5019789;28;20289;-35
2023/06/05 09:00:23;;;;;;;13.25;8.02;;;19.00;93.20;;;;;;5014963;28;20270;-36
2023/06/05 09:02:53;;;;;;;9.05;8.02;;;19.10;93.00;;;;;;5020137;28;20233;-36
2023/06/05 09:05:20;;;;;;;10.38;8.85;;;19.10;93.00;;;;;;5019722;28;20669;-37
2023/06/05 09:07:48;;;;;;;12.40;9.02;;;19.10;93.20;;;;;;5020652;28;20212;-37
2023/06/05 09:10:26;;;;;;;11.18;8.48;;;19.10;93.20;;;;;;5021512;28;20193;-37
2023/06/05 09:12:58;;;;;;;12.07;9.95;;;19.20;93.40;;;;;;5019573;28;20200;-37
2023/06/05 09:15:34;;;;;;;10.05;7.88;;;19.20;93.60;;;;;;5021046;28;20201;-36
2023/06/05 09:18:15;;;;;;;11.13;8.43;;;19.30;93.20;;;;;;5014669;28;20676;-36
2023/06/05 09:20:45;;;;;;;10.15;7.45;;;19.40;93.60;;;;;;5013429;28;20507;-36
2023/06/05 09:23:28;;;;;;;10.05;8.23;;;19.40;93.50;;;;;;5020178;28;20228;-36
2023/06/05 09:26:01;;;;;;;10.68;8.15;;;19.40;93.20;;;;;;5019005;28;20260;-36
2023/06/05 09:28:36;;;;;;;15.20;8.95;;;19.50;93.30;;;;;;5019932;28;20207;-36
2023/06/05 09:31:08;;;;;;;10.07;8.40;;;19.60;93.30;;;;;;5017897;28;20331;-36
2023/06/05 09:33:38;;;;;;;10.82;7.65;;;19.70;93.30;;;;;;5009299;28;20228;-36
2023/06/05 09:36:13;;;;;;;8.13;6.63;;;19.70;93.20;;;;;;5015198;28;20209;-34
2023/06/05 09:38:41;;;;;;;12.65;8.75;;;19.80;93.20;;;;;;5013105;28;20551;-38
2023/06/05 09:41:09;;;;;;;10.52;8.00;;;19.80;93.20;;;;;;5017010;28;20259;-34
2023/06/05 09:43:38;;;;;;;9.68;6.82;;;19.90;93.20;;;;;;5005833;28;20290;-34
2023/06/05 09:46:17;;;;;;;9.23;8.10;;;19.90;93.20;;;;;;5013944;28;20735;-34
2023/06/05 09:48:53;;;;;;;9.13;7.10;;;20.00;93.20;;;;;;5018591;28;20197;-34
2023/06/05 09:51:23;;;;;;;10.77;8.40;;;20.10;93.30;;;;;;5018715;28;20193;-34
2023/06/05 09:53:53;;;;;;;10.32;8.18;;;20.20;93.50;;;;;;5013363;28;20226;-34
2023/06/05 09:56:23;;;;;;;10.20;7.35;;;20.20;93.40;;;;;;4992436;28;20638;-34
2023/06/05 09:58:52;;;;;;;10.15;7.90;;;20.30;93.60;;;;;;5012448;28;20629;-34
2023/06/05 10:01:22;;;;;;;9.40;7.95;;;20.40;93.40;;;;;;5003446;28;20209;-34
2023/06/05 10:03:57;;;;;;;10.82;6.50;;;20.40;93.30;;;;;;5011704;28;20228;-34
2023/06/05 10:06:33;;;;;;;10.43;8.25;;;20.50;93.30;;;;;;5011293;28;20501;-34
2023/06/05 10:09:06;;;;;;;10.15;8.40;;;20.60;93.40;;;;;;5014436;28;20262;-34
2023/06/05 10:11:34;;;;;;;8.20;7.10;;;20.70;93.30;;;;;;5003717;28;20202;-34
2023/06/05 10:14:05;;;;;;;8.80;7.07;;;20.70;93.30;;;;;;5007659;28;20710;-34
2023/06/05 10:16:33;;;;;;;7.70;6.07;;;20.80;93.20;;;;;;5024180;28;20275;-34
2023/06/05 10:19:06;;;;;;;9.75;6.22;;;20.90;93.30;;;;;;5023245;28;20190;-34
2023/06/05 10:21:33;;;;;;;8.88;7.13;;;21.00;93.30;;;;;;5021358;28;20225;-34
2023/06/05 10:24:05;;;;;;;9.38;6.68;;;21.00;93.30;;;;;;5023747;28;20266;-34
2023/06/05 10:27:09;;;;;;;10.32;7.85;;;21.10;93.30;;;;;;5017752;28;20259;-34
2023/06/05 10:30:06;;;;;;;10.27;7.57;;;21.20;93.20;;;;;;5003309;28;20227;-36
2023/06/05 10:32:57;;;;;;;7.28;6.35;;;21.20;93.00;;;;;;5017950;28;20211;-35
2023/06/05 10:35:41;;;;;;;7.60;6.65;;;21.20;93.10;;;;;;5017755;28;20266;-34
2023/06/05 10:38:17;;;;;;;12.50;6.72;;;21.30;93.00;;;;;;5019747;28;20290;-34
2023/06/05 10:40:58;;;;;;;8.57;6.70;;;21.30;93.00;;;;;;5022231;28;20222;-35
2023/06/05 10:43:33;;;;;;;8.65;6.35;;;21.40;93.20;;;;;;5005137;28;20403;-35
2023/06/05 10:46:22;;;;;;;9.50;6.80;;;21.40;93.10;;;;;;5015699;28;20239;-36
2023/06/05 10:49:07;;;;;;;8.55;7.32;;;21.50;92.90;;;;;;5008712;28;20538;-34
2023/06/05 10:51:46;;;;;;;8.38;6.38;;;21.50;92.90;;;;;;5017121;28;20635;-34
2023/06/05 10:54:34;;;;;;;9.25;7.25;;;21.60;92.90;;;;;;5014063;28;20670;-35
2023/06/05 10:57:07;;;;;;;7.88;6.68;;;21.70;92.80;;;;;;5007801;28;20210;-35
2023/06/05 10:59:35;;;;;;;9.63;6.22;;;21.70;92.90;;;;;;5021661;28;20306;-34
2023/06/05 11:02:09;;;;;;;8.35;5.28;;;21.80;93.00;;;;;;5019678;28;20306;-35
2023/06/05 11:04:42;;;;;;;7.93;5.80;;;21.90;92.80;;;;;;5018025;28;20556;-35
2023/06/05 11:07:24;;;;;;;11.15;6.63;;;21.90;92.80;;;;;;5011931;28;20209;-34
2023/06/05 11:10:08;;;;;;;7.22;5.78;;;21.90;92.70;;;;;;5006589;28;20205;-35
2023/06/05 11:12:38;;;;;;;9.57;5.78;;;22.00;92.40;;;;;;5018212;28;20229;-35
2023/06/05 11:15:09;;;;;;;8.57;6.47;;;22.00;92.30;;;;;;5020752;28;20224;-35
2023/06/05 11:17:39;;;;;;;6.70;5.20;;;22.10;92.40;;;;;;5022648;28;20200;-34
2023/06/05 11:20:29;;;;;;;7.88;5.53;;;22.10;92.40;;;;;;5019213;28;20200;-35
2023/06/05 11:22:59;;;;;;;9.13;5.50;;;22.20;92.30;;;;;;5001304;28;20225;-35
2023/06/05 11:25:28;;;;;;;9.38;5.80;;;22.20;92.50;;;;;;5016100;28;20212;-35
2023/06/05 11:28:02;;;;;;;11.73;6.00;;;22.30;92.00;;;;;;5023257;28;20205;-38
2023/06/05 11:30:42;;;;;;;8.45;5.88;;;22.40;92.50;;;;;;5012210;28;20492;-36
2023/06/05 11:33:17;;;;;;;13.13;5.78;;;22.40;92.20;;;;;;5021668;28;20197;-36
2023/06/05 11:35:48;;;;;;;10.32;5.70;;;22.40;92.30;;;;;;5022113;28;20205;-35
2023/06/05 11:38:21;;;;;;;6.85;5.60;;;22.50;92.00;;;;;;5022631;28;20390;-36
2023/06/05 11:40:56;;;;;;;7.50;4.85;;;22.60;91.90;;;;;;5018096;28;20655;-35
2023/06/05 11:43:24;;;;;;;7.60;5.28;;;22.60;92.00;;;;;;5011391;28;20261;-35
2023/06/05 11:45:59;;;;;;;8.27;5.10;;;22.70;92.00;;;;;;5021196;28;20201;-35
2023/06/05 11:48:26;;;;;;;8.63;4.45;;;22.70;91.90;;;;;;5019833;28;20288;-35
2023/06/05 11:50:59;;;;;;;7.25;3.70;;;22.80;92.20;;;;;;5022068;28;20598;-35
2023/06/05 11:53:28;;;;;;;6.43;3.72;;;22.90;92.30;;;;;;5022023;28;20445;-35
2023/06/05 11:56:06;;;;;;;5.18;4.15;;;23.00;92.20;;;;;;5021580;28;20269;-36
2023/06/05 11:58:38;;;;;;;5.55;4.25;;;23.00;91.90;;;;;;5015732;28;20526;-35
2023/06/05 12:01:14;;;;;;;6.35;4.72;;;23.10;91.80;;;;;;5005760;28;20203;-36
2023/06/05 12:03:45;;;;;;;7.18;3.63;;;23.10;91.60;;;;;;5021113;28;20239;-35
2023/06/05 12:06:17;;;;;;;5.55;3.50;;;23.10;92.00;;;;;;5020269;28;20628;-36
2023/06/05 12:08:49;;;;;;;7.57;4.15;;;23.20;92.30;;;;;;5020936;28;20279;-36
2023/06/05 12:11:38;;;;;;;5.13;3.80;;;23.30;91.40;;;;;;5020850;28;20723;-35
2023/06/05 12:14:11;;;;;;;8.63;4.40;;;23.40;91.60;;;;;;5020456;28;20245;-36
2023/06/05 12:16:40;;;;;;;4.70;3.63;;;23.40;91.30;;;;;;5009594;28;20233;-36
2023/06/05 12:19:16;;;;;;;6.15;4.38;;;23.40;91.80;;;;;;5002942;28;20225;-36
2023/06/05 12:21:46;;;;;;;7.97;4.07;;;23.50;91.20;;;;;;5016012;28;20340;-36
2023/06/05 12:24:28;;;;;;;7.80;3.78;;;23.50;91.70;;;;;;5019504;28;20310;-37
2023/06/05 12:26:59;;;;;;;6.57;3.50;;;23.60;91.40;;;;;;5022718;28;20729;-37
2023/06/05 12:29:29;;;;;;;4.78;4.03;;;23.60;91.20;;;;;;5021468;28;20627;-37
2023/06/05 12:32:03;;;;;;;6.90;4.38;;;23.60;91.00;;;;;;5021803;28;20719;-37
2023/06/05 12:34:50;;;;;;;7.68;3.90;;;23.60;90.80;;;;;;5015688;28;20205;-37
2023/06/05 12:37:38;;;;;;;6.32;3.15;;;23.60;90.70;;;;;;5018917;28;20228;-37
2023/06/05 12:40:13;;;;;;;4.72;2.72;;;23.70;91.20;;;;;;5020540;28;20231;-36
2023/06/05 12:42:59;;;;;;;4.65;3.38;;;23.80;91.10;;;;;;5019474;28;20237;-37
2023/06/05 12:45:30;;;;;;;3.75;2.83;;;23.80;90.80;;;;;;5019824;28;20229;-37
2023/06/05 12:47:58;;;;;;;5.97;3.03;;;23.90;90.50;;;;;;5020055;28;20240;-37
2023/06/05 12:50:26;;;;;;;4.13;2.92;;;23.90;90.90;;;;;;5023081;28;20201;-37
2023/06/05 12:52:55;;;;;;;6.60;3.15;;;24.00;90.90;;;;;;5004038;28;20655;-37
2023/06/05 12:55:23;;;;;;;4.68;2.60;;;24.00;91.20;;;;;;5019231;28;20228;-36
2023/06/05 12:57:52;;;;;;;3.92;2.47;;;24.10;91.30;;;;;;5020462;28;20229;-37
2023/06/05 13:00:22;;;;;;;4.85;2.83;;;24.20;91.60;;;;;;5018922;28;20223;-37
2023/06/05 13:02:51;;;;;;;4.53;2.92;;;24.30;91.20;;;;;;5019787;28;20228;-37
2023/06/05 13:05:21;;;;;;;3.88;2.50;;;24.40;91.20;;;;;;5021491;28;20200;-37
2023/06/05 13:07:54;;;;;;;3.42;2.70;;;24.50;91.70;;;;;;5019635;28;20647;-37